• vieta
  • image
  • image
  • image
mod_vvisit_countermod_vvisit_countermod_vvisit_countermod_vvisit_countermod_vvisit_countermod_vvisit_counter
mod_vvisit_counterŠiandien413
mod_vvisit_counterVakar1245
mod_vvisit_counterŠią savaitę4003
mod_vvisit_counterPraėjusią savaitę5826
mod_vvisit_counterŠį mėnesį17565
mod_vvisit_counterPraėjusį mėnesį22413
mod_vvisit_counterViso848206

Mes turime: 21 svečius, 3 bots online
Jūsų IP: 54.221.17.234
 , 
Šiandien: Vas 22, 2018
Oro uostas / Verslui / Apmokėjimas už paslaugas

Apmokėjimas už paslaugas

Už orlaivių antžemines paslaugas ar kitas paslaugas, kurias gali suteikti SĮ Šiaulių oro uostas Tarptautiniame Šiaulių oro uoste, klientai gali atsiskaityti su:

  

 visa k

Visa / Visa Electron

 

maestro mastercard Master Card / Maestro

  multiservice

Multiservice Air Card's

 

euro


grynais - eurais

 

 

Arba bankiniu pavedimu.

Šiandien

Ketvirtadienis, 22 Vasaris 2018

Orų prognozė aviacijai

[source: ADDS]
METAR
EYSA 221150Z 06004KT CAVOK M10/M12 Q1030 R32R/19//95 R32L/19//95 BLU NOSIG =
TAF
TAF COR EYSA 221114Z 2212/2221 VRB05KT 7000 SCT025 BECMG 2217/2219 NSC =
SR / SS: 05:33 / 15:49 UTC (EYSA 2018-02-22)

Paieška

Lankytojai

Mes turime 24 svečius online

tic logo lt